Observations for BARI PALESE MACCHIE, Italy (LIBD)

LIBD 191250Z 04008KT 360V070 9999 FEW010 SCT020 23/19 Q1015 
LIBD 191220Z 04006KT 010V070 9999 FEW010 SCT020 23/19 Q1015 R07/110095  
LIBD 191150Z 02007KT 9999 FEW010 SCT020 22/19 Q1015 R07/110095  
LIBD 191120Z 02008KT 9999 FEW008 BKN017 22/19 Q1016 R07/110095  
LIBD 191050Z 04008KT 010V070 9999 FEW010 BKN020 21/19 Q1017 R07/110095  
LIBD 191020Z 04009KT 9000 FEW005 SCT020CB BKN040 21/19 Q1017
LIBD 190950Z 03012KT 9999 VCTS FEW005 SCT020CB BKN040 21/18 Q1016   
LIBD 190920Z 04015KT 8000 TSRA FEW005 SCT020CB BKN035 21/19 Q1016   
LIBD 190850Z 36014KT 320V030 6000 TSRA FEW005 SCT020CB BKN035 22/19 Q1015   
LIBD 190820Z 36011KT 8000 FEW012 SCT020CB BKN035 24/21 Q1015
LIBD 190750Z 35007KT 6000 FEW020 SCT030 25/21 Q1014 
LIBD 190720Z VRB01KT 6000 FEW030 25/21 Q1014
LIBD 190650Z VRB02KT 6000 FEW030 24/21 Q1014
LIBD 190620Z 19003KT 160V230 6000 FEW020 23/21 Q1014
LIBD 190550Z 23002KT 6000 FEW025 21/21 Q1014
LIBD 190520Z 22004KT 6000 FEW025 21/20 Q1014
LIBD 190450Z 23004KT 6000 NSC 21/20 Q1014   
LIBD 190420Z 23004KT CAVOK 21/20 Q1013  
LIBD 190350Z 21003KT 9999 FEW020 21/20 Q1014
LIBD 190250Z 21004KT 9999 FEW020 21/19 Q1014
LIBD 190220Z 21004KT CAVOK 21/19 Q1015  
LIBD 190150Z 22005KT CAVOK 21/18 Q1015  
LIBD 190050Z 27005KT CAVOK 22/19 Q1015  
LIBD 190020Z 23005KT CAVOK 21/18 Q1015  
LIBD 182350Z VRB02KT CAVOK 21/18 Q1015  
LIBD 182320Z 23004KT CAVOK 21/18 Q1015  
LIBD 182250Z 20005KT CAVOK 21/18 Q1015  
LIBD 182220Z VRB01KT CAVOK 21/18 Q1015  
LIBD 182150Z VRB03KT CAVOK 22/19 Q1015  
LIBD 182120Z VRB01KT CAVOK 22/19 Q1015  
LIBD 182050Z 19003KT CAVOK 23/19 Q1015  
LIBD 182020Z 20004KT CAVOK 23/19 Q1015  
LIBD 181950Z 21004KT 170V240 CAVOK 24/19 Q1015  
LIBD 181920Z 18003KT CAVOK 25/19 Q1015  
LIBD 181850Z 16003KT CAVOK 24/22 Q1015  
LIBD 181820Z 13003KT CAVOK 24/22 Q1015  
LIBD 181750Z 12004KT CAVOK 25/22 Q1014  
LIBD 181720Z 11005KT 080V140 CAVOK 25/22 Q1014  
LIBD 181650Z 09007KT CAVOK 25/22 Q1014  
LIBD 181620Z 09007KT CAVOK 25/21 Q1014  
LIBD 181550Z 09009KT CAVOK 26/21 Q1014  
LIBD 181520Z 09008KT CAVOK 26/20 Q1014  
LIBD 181450Z 08009KT CAVOK 26/20 Q1014  
LIBD 181420Z 08010KT CAVOK 27/20 Q1014  
LIBD 181350Z 09009KT CAVOK 27/19 Q1014  
LIBD 181320Z 08012KT CAVOK 27/19 Q1014  
LIBD 181250Z 10010KT CAVOK 27/19 Q1014